Time;durP1;ratioP1;P1;durP2;ratioP2;P2;SDS_P1;SDS_P2;PMS_P1;PMS_P2;Temp;Humidity;BMP_temperature;BMP_pressure;BME280_temperature;BME280_humidity;BME280_pressure;Samples;Min_cycle;Max_cycle;Signal;HPM_P1;HPM_P2
2021/12/29 00:01:30;;;;;;;20.17;9.32;;;;;;;10.75;100.00;99080.75;8359698;28;20087;-66
2021/12/29 00:05:31;;;;;;;15.10;8.20;;;;;;;10.73;100.00;99089.03;8367371;28;20487;-66
2021/12/29 00:09:36;;;;;;;11.93;8.10;;;;;;;10.72;100.00;99087.38;8365179;28;20048;-66
2021/12/29 00:13:36;;;;;;;;;;;;;;;10.79;100.00;99096.44;8358260;28;20079;-66
2021/12/29 00:17:39;;;;;;;14.77;7.30;;;;;;;10.79;100.00;99104.56;8370669;28;19917;-66
2021/12/29 00:21:39;;;;;;;11.00;6.13;;;;;;;10.78;100.00;99119.09;8357069;28;20036;-66
2021/12/29 00:25:39;;;;;;;8.15;4.78;;;;;;;10.81;100.00;99121.44;8358520;28;20069;-66
2021/12/29 00:29:40;;;;;;;7.47;4.68;;;;;;;10.79;100.00;99133.44;8358477;28;20042;-66
2021/12/29 00:33:40;;;;;;;6.93;4.18;;;;;;;10.77;100.00;99139.00;8386031;28;20045;-66
2021/12/29 00:37:41;;;;;;;5.30;3.42;;;;;;;10.74;100.00;99120.44;8362014;28;20048;-66
2021/12/29 00:41:42;;;;;;;5.93;3.90;;;;;;;10.74;100.00;99133.97;8333947;28;20052;-66
2021/12/29 00:45:43;;;;;;;7.50;4.32;;;;;;;10.76;100.00;99164.38;8369177;28;20055;-66
2021/12/29 00:49:46;;;;;;;7.75;5.38;;;;;;;10.79;100.00;99174.84;8365029;28;20384;-66
2021/12/29 00:53:46;;;;;;;10.30;6.63;;;;;;;10.81;100.00;99188.19;8388315;28;20510;-66
2021/12/29 00:57:47;;;;;;;9.52;6.05;;;;;;;10.85;100.00;99212.00;8387292;28;20402;-66
2021/12/29 01:01:48;;;;;;;7.63;5.53;;;;;;;10.90;100.00;99216.88;8372555;28;20037;-66
2021/12/29 01:05:48;;;;;;;7.00;5.63;;;;;;;10.92;100.00;99217.56;8362654;28;20324;-66
2021/12/29 01:09:49;;;;;;;9.73;5.60;;;;;;;10.86;100.00;99219.06;8355502;28;20068;-66
2021/12/29 01:13:50;;;;;;;7.60;5.65;;;;;;;10.85;100.00;99227.34;8362820;28;20234;-66
2021/12/29 01:17:51;;;;;;;7.40;5.10;;;;;;;10.82;100.00;99233.09;8382771;28;20391;-66
2021/12/29 01:21:55;;;;;;;6.55;5.18;;;;;;;10.77;100.00;99247.13;8383647;28;20040;-66
2021/12/29 01:25:55;;;;;;;6.60;5.25;;;;;;;10.82;100.00;99261.00;8354834;28;20033;-66
2021/12/29 01:29:55;;;;;;;7.55;5.75;;;;;;;10.82;100.00;99271.81;8357863;28;20041;-66
2021/12/29 01:33:56;;;;;;;9.15;6.43;;;;;;;10.80;100.00;99279.22;8363939;28;20033;-66
2021/12/29 01:37:56;;;;;;;9.63;6.57;;;;;;;10.83;100.00;99284.28;8343460;28;20445;-66
2021/12/29 01:41:59;;;;;;;9.43;6.30;;;;;;;10.86;100.00;99289.34;8322376;28;20453;-66
2021/12/29 01:45:59;;;;;;;10.02;6.00;;;;;;;10.87;100.00;99299.19;8322424;28;20120;-66
2021/12/29 01:50:01;;;;;;;8.20;6.20;;;;;;;10.81;100.00;99307.97;8333293;28;20037;-66
2021/12/29 01:54:14;;;;;;;10.02;7.30;;;;;;;10.80;100.00;99321.66;8353638;28;20025;-67
2021/12/29 01:58:16;;;;;;;9.87;7.00;;;;;;;10.80;100.00;99322.47;8387636;28;20040;-67
2021/12/29 02:02:16;;;;;;;13.65;7.03;;;;;;;10.78;100.00;99335.34;8387607;28;20109;-67
2021/12/29 02:06:17;;;;;;;8.60;7.20;;;;;;;10.81;100.00;99345.81;8359319;28;20041;-67
2021/12/29 02:10:20;;;;;;;14.25;7.57;;;;;;;10.82;100.00;99358.31;8358237;28;20037;-67
2021/12/29 02:14:21;;;;;;;15.93;6.88;;;;;;;10.83;100.00;99365.41;8362625;28;20036;-67
2021/12/29 02:18:21;;;;;;;12.68;5.95;;;;;;;10.87;100.00;99383.00;8368873;28;20044;-67
2021/12/29 02:22:38;;;;;;;9.63;6.40;;;;;;;10.83;100.00;99370.81;8341414;28;20504;-67
2021/12/29 02:26:39;;;;;;;8.95;6.18;;;;;;;10.80;100.00;99364.91;8346908;28;20052;-67
2021/12/29 02:30:40;;;;;;;10.85;6.32;;;;;;;10.84;100.00;99380.63;8351340;28;20052;-67
2021/12/29 02:34:40;;;;;;;10.32;5.97;;;;;;;10.84;100.00;99380.63;8338032;28;20045;-67
2021/12/29 02:38:46;;;;;;;9.98;6.60;;;;;;;10.87;100.00;99388.41;8328862;28;20041;-67
2021/12/29 02:42:46;;;;;;;7.82;6.65;;;;;;;10.82;100.00;99379.94;8325332;28;20029;-67
2021/12/29 02:46:47;;;;;;;13.90;6.85;;;;;;;10.81;100.00;99382.81;8326585;28;20109;-67
2021/12/29 02:50:48;;;;;;;11.82;7.07;;;;;;;10.75;100.00;99400.56;8344786;28;20033;-67
2021/12/29 02:54:48;;;;;;;14.88;7.80;;;;;;;10.68;100.00;99399.56;8359675;28;20059;-67
2021/12/29 02:58:49;;;;;;;13.15;8.15;;;;;;;10.56;100.00;99411.72;8359678;28;20033;-67
2021/12/29 03:02:49;;;;;;;11.48;8.25;;;;;;;10.65;100.00;99410.72;8357313;28;20068;-67
2021/12/29 03:06:49;;;;;;;16.25;8.68;;;;;;;10.65;100.00;99415.25;8359431;28;20405;-67
2021/12/29 03:10:53;;;;;;;17.70;8.35;;;;;;;10.60;100.00;99418.47;8350885;28;20041;-67
2021/12/29 03:14:56;;;;;;;13.17;7.50;;;;;;;10.71;100.00;99420.00;8338687;28;20416;-67
2021/12/29 03:18:57;;;;;;;13.57;8.70;;;;;;;10.68;100.00;99423.88;8342187;28;20048;-67
2021/12/29 03:22:58;;;;;;;14.55;7.95;;;;;;;10.56;100.00;99422.53;8350899;28;20048;-67
2021/12/29 03:26:58;;;;;;;12.52;7.95;;;;;;;10.53;100.00;99441.78;8325793;28;20041;-67
2021/12/29 03:30:59;;;;;;;17.10;7.90;;;;;;;10.59;100.00;99448.34;8325071;28;20037;-67
2021/12/29 03:34:59;;;;;;;14.35;8.40;;;;;;;10.62;100.00;99453.44;8326339;28;20269;-67
2021/12/29 03:39:00;;;;;;;14.75;7.85;;;;;;;10.58;100.00;99455.59;8329489;28;20371;-67
2021/12/29 03:43:03;;;;;;;9.48;7.15;;;;;;;10.56;100.00;99460.34;8323731;28;20543;-67
2021/12/29 03:47:04;;;;;;;18.27;8.52;;;;;;;10.60;100.00;99467.09;8325095;28;20029;-67
2021/12/29 03:51:05;;;;;;;12.52;8.15;;;;;;;10.58;100.00;99476.41;8345871;28;20049;-67
2021/12/29 03:55:07;;;;;;;13.82;8.57;;;;;;;10.65;100.00;99486.38;8361950;28;20499;-67
2021/12/29 03:59:07;;;;;;;14.35;9.00;;;;;;;10.62;100.00;99496.66;8389807;28;20530;-67
2021/12/29 04:03:08;;;;;;;13.43;8.30;;;;;;;10.61;100.00;99501.22;8337693;28;20371;-67
2021/12/29 04:07:08;;;;;;;11.25;7.88;;;;;;;10.67;100.00;99511.38;8330979;28;20457;-67
2021/12/29 04:11:09;;;;;;;12.50;7.95;;;;;;;10.70;100.00;99511.03;8323706;28;20148;-67
2021/12/29 04:15:11;;;;;;;12.95;7.88;;;;;;;10.67;100.00;99526.75;8326504;28;20033;-67
2021/12/29 04:19:17;;;;;;;12.18;8.57;;;;;;;10.74;100.00;99542.13;8341382;28;20500;-67
2021/12/29 04:23:18;;;;;;;12.23;7.47;;;;;;;10.77;100.00;99533.69;8330611;28;20075;-67
2021/12/29 04:27:22;;;;;;;17.17;7.85;;;;;;;10.76;100.00;99545.53;8322222;28;20044;-67
2021/12/29 04:31:22;;;;;;;12.68;7.97;;;;;;;10.73;100.00;99548.56;8322944;28;20049;-67
2021/12/29 04:35:23;;;;;;;20.65;8.02;;;;;;;10.78;100.00;99550.75;8327615;28;20040;-67
2021/12/29 04:39:24;;;;;;;19.58;9.48;;;;;;;10.74;100.00;99561.03;8323789;28;20034;-67
2021/12/29 04:43:25;;;;;;;19.63;9.73;;;;;;;10.62;100.00;99557.00;8323537;28;20087;-67
2021/12/29 04:47:29;;;;;;;18.08;10.90;;;;;;;10.68;100.00;99555.47;8369031;28;20032;-67
2021/12/29 04:51:35;;;;;;;17.60;10.63;;;;;;;10.66;100.00;99569.16;8354193;28;20134;-67
2021/12/29 04:55:36;;;;;;;21.50;10.30;;;;;;;10.74;100.00;99581.84;8334964;28;20032;-67
2021/12/29 04:59:36;;;;;;;19.23;9.52;;;;;;;10.66;100.00;99589.91;8387645;28;20044;-67
2021/12/29 05:03:38;;;;;;;18.55;9.88;;;;;;;10.61;100.00;99600.41;8388879;28;20036;-67
2021/12/29 05:08:38;;;;;;;15.75;9.88;;;;;;;10.59;100.00;99600.56;8388749;28;20484;-67
2021/12/29 05:12:01;;;;;;;22.02;10.25;;;;;;;10.62;100.00;99605.63;8373647;28;20378;-67
2021/12/29 05:16:02;;;;;;;17.30;10.02;;;;;;;10.61;100.00;99620.13;8381586;28;20075;-67
2021/12/29 05:20:03;;;;;;;18.15;10.20;;;;;;;10.61;100.00;99613.91;8359601;28;20156;-68
2021/12/29 05:24:03;;;;;;;25.00;10.80;;;;;;;10.61;100.00;99628.25;8331057;28;20077;-67
2021/12/29 05:28:04;;;;;;;17.48;10.40;;;;;;;10.64;100.00;99627.91;8321218;28;20030;-67
2021/12/29 05:32:06;;;;;;;17.42;10.27;;;;;;;10.64;100.00;99635.22;8335220;28;20469;-67
2021/12/29 05:36:07;;;;;;;16.75;10.80;;;;;;;10.65;100.00;99636.88;8343965;28;20486;-67
2021/12/29 05:40:08;;;;;;;17.00;11.55;;;;;;;10.60;100.00;99642.78;8330827;28;20106;-67
2021/12/29 05:44:09;;;;;;;18.52;10.55;;;;;;;10.55;100.00;99641.59;8346885;28;20057;-67
2021/12/29 05:48:10;;;;;;;16.05;10.50;;;;;;;10.52;100.00;99640.03;8330404;28;20060;-67
2021/12/29 05:52:10;;;;;;;19.38;10.90;;;;;;;10.46;100.00;99640.66;8357403;28;20033;-67
2021/12/29 05:56:11;;;;;;;20.02;10.80;;;;;;;10.43;100.00;99649.09;8361177;28;20500;-67
2021/12/29 06:00:14;;;;;;;22.38;11.68;;;;;;;10.40;100.00;99660.22;8342809;28;20048;-67
2021/12/29 06:04:14;;;;;;;17.08;10.50;;;;;;;10.39;100.00;99652.28;8340428;28;20409;-67
2021/12/29 06:08:15;;;;;;;18.77;11.60;;;;;;;10.37;100.00;99655.16;8362798;28;20029;-67
2021/12/29 06:12:15;;;;;;;20.85;10.35;;;;;;;10.44;100.00;99656.22;8349189;28;20033;-67
2021/12/29 06:16:16;;;;;;;15.85;9.68;;;;;;;10.53;100.00;99668.78;8337637;28;20041;-67
2021/12/29 06:20:16;;;;;;;18.55;9.75;;;;;;;10.51;100.00;99659.97;8336990;28;20041;-67
2021/12/29 06:24:17;;;;;;;14.75;8.93;;;;;;;10.48;100.00;99652.19;8340827;28;20048;-67
2021/12/29 06:28:17;;;;;;;15.88;8.55;;;;;;;10.45;100.00;99657.91;8357164;28;20116;-67
2021/12/29 06:32:18;;;;;;;13.93;8.90;;;;;;;10.43;100.00;99664.47;8338994;28;20061;-67
2021/12/29 06:36:19;;;;;;;15.35;8.52;;;;;;;10.39;100.00;99677.47;8342273;28;20041;-67
2021/12/29 06:40:19;;;;;;;15.82;8.85;;;;;;;10.40;100.00;99676.44;8324046;28;20052;-68
2021/12/29 06:44:20;;;;;;;11.82;8.65;;;;;;;10.36;100.00;99669.66;8323544;28;20543;-68
2021/12/29 06:48:20;;;;;;;11.13;8.13;;;;;;;10.35;100.00;99681.50;8325732;28;20501;-68
2021/12/29 06:52:22;;;;;;;13.88;8.23;;;;;;;10.33;100.00;99691.59;8334884;28;20368;-68
2021/12/29 06:56:27;;;;;;;11.82;8.02;;;;;;;10.34;100.00;99689.75;8334210;28;21142;-67
2021/12/29 07:00:27;;;;;;;11.13;7.53;;;;;;;10.32;100.00;99700.72;8353682;28;20806;-67
2021/12/29 07:04:28;;;;;;;12.52;7.15;;;;;;;10.39;100.00;99696.38;8336694;28;20033;-67
2021/12/29 07:08:29;;;;;;;13.20;7.32;;;;;;;10.38;100.00;99705.50;8351705;28;20067;-67
2021/12/29 07:12:29;;;;;;;12.25;7.85;;;;;;;10.44;100.00;99699.44;8353257;28;20309;-68
2021/12/29 07:16:31;;;;;;;7.55;5.30;;;;;;;10.50;100.00;99715.03;8339176;28;20040;-68
2021/12/29 07:20:31;;;;;;;8.40;5.47;;;;;;;10.56;100.00;99730.59;8350426;28;20045;-68
2021/12/29 07:24:33;;;;;;;8.60;6.10;;;;;;;10.53;100.00;99741.72;8329395;28;20044;-68
2021/12/29 07:28:33;;;;;;;12.38;6.57;;;;;;;10.53;100.00;99741.72;8370402;28;20135;-67
2021/12/29 07:32:33;;;;;;;10.57;7.03;;;;;;;10.53;100.00;99720.13;8359863;28;20057;-67
2021/12/29 07:36:35;;;;;;;8.85;6.28;;;;;;;10.50;100.00;99719.56;8311985;28;20048;-67
2021/12/29 07:40:35;;;;;;;18.67;7.07;;;;;;;10.46;100.00;99729.84;8321701;28;20124;-67
2021/12/29 07:44:36;;;;;;;9.77;5.60;;;;;;;10.50;100.00;99731.25;8328845;28;20044;-68
2021/12/29 07:48:37;;;;;;;10.05;5.78;;;;;;;10.46;100.00;99743.34;8332301;28;20033;-67
2021/12/29 07:52:37;;;;;;;7.28;5.97;;;;;;;10.48;100.00;99760.25;8337459;28;20560;-67
2021/12/29 07:56:38;;;;;;;11.73;5.25;;;;;;;10.54;100.00;99762.34;8331166;28;20421;-67
2021/12/29 08:00:39;;;;;;;12.90;5.68;;;;;;;10.56;100.00;99773.84;8334949;28;20065;-67
2021/12/29 08:04:39;;;;;;;6.80;4.85;;;;;;;10.54;100.00;99759.63;8338208;28;20047;-67
2021/12/29 08:08:40;;;;;;;9.25;5.18;;;;;;;10.57;100.00;99759.31;8347139;28;20801;-67
2021/12/29 08:12:41;;;;;;;8.70;4.97;;;;;;;10.59;100.00;99769.97;8333789;28;20045;-67
2021/12/29 08:16:41;;;;;;;11.02;5.57;;;;;;;10.48;100.00;99776.47;8321324;28;20702;-67
2021/12/29 08:20:42;;;;;;;11.68;5.30;;;;;;;10.57;100.00;99786.34;8328059;28;20034;-67
2021/12/29 08:24:43;;;;;;;9.68;5.13;;;;;;;10.62;100.00;99783.16;8318541;28;20049;-67
2021/12/29 08:28:44;;;;;;;10.55;5.22;;;;;;;10.63;100.00;99785.72;8322501;28;20508;-67
2021/12/29 08:32:44;;;;;;;8.90;5.30;;;;;;;10.60;100.00;99780.63;8323762;28;20424;-67
2021/12/29 08:36:45;;;;;;;9.80;5.07;;;;;;;10.64;100.00;99789.28;8330364;28;20492;-67
2021/12/29 08:40:45;;;;;;;8.23;4.88;;;;;;;10.62;100.00;99794.84;8330209;28;20044;-68
2021/12/29 08:44:46;;;;;;;9.48;5.95;;;;;;;10.56;100.00;99795.47;8315982;28;20149;-68
2021/12/29 08:48:46;;;;;;;9.60;5.90;;;;;;;10.53;100.00;99795.78;8320122;28;20413;-68
2021/12/29 08:52:47;;;;;;;12.20;5.68;;;;;;;10.55;100.00;99804.56;8319972;28;20029;-68
2021/12/29 08:56:47;;;;;;;10.20;6.20;;;;;;;10.54;100.00;99796.59;8317845;28;20030;-68
2021/12/29 09:00:48;;;;;;;9.10;5.53;;;;;;;10.60;100.00;99806.78;8322822;28;20135;-68
2021/12/29 09:04:48;;;;;;;9.10;5.20;;;;;;;10.64;100.00;99806.31;8315600;28;21952;-68
2021/12/29 09:08:48;;;;;;;9.52;5.60;;;;;;;10.67;100.00;99814.09;8321287;28;20132;-68
2021/12/29 09:12:51;;;;;;;12.05;6.47;;;;;;;10.73;100.00;99824.28;8314318;28;20037;-68
2021/12/29 09:16:51;;;;;;;16.60;6.00;;;;;;;10.73;100.00;99815.34;8325958;28;20421;-68
2021/12/29 09:20:54;;;;;;;11.95;6.47;;;;;;;10.74;100.00;99815.16;8333156;28;20119;-68
2021/12/29 09:24:54;;;;;;;11.30;6.55;;;;;;;10.71;100.00;99812.81;8324959;28;20155;-68
2021/12/29 09:28:54;;;;;;;14.38;6.60;;;;;;;10.74;100.00;99815.16;8326410;28;20490;-68
2021/12/29 09:32:56;;;;;;;12.45;7.78;;;;;;;10.74;100.00;99817.03;8323228;28;20123;-68
2021/12/29 09:36:56;;;;;;;20.02;8.02;;;;;;;10.77;100.00;99814.84;8320814;28;20067;-68
2021/12/29 09:40:57;;;;;;;17.05;8.13;;;;;;;10.80;100.00;99811.81;8322634;28;20041;-68
2021/12/29 09:44:58;;;;;;;14.63;7.20;;;;;;;10.79;100.00;99812.84;8325788;28;20487;-68
2021/12/29 09:49:00;;;;;;;17.13;7.85;;;;;;;10.82;100.00;99820.63;8323666;28;20042;-68
2021/12/29 09:53:01;;;;;;;17.80;8.25;;;;;;;10.86;100.00;99827.41;8314207;28;20046;-68
2021/12/29 09:57:03;;;;;;;11.93;7.32;;;;;;;10.92;100.00;99831.34;8329797;28;20116;-68
2021/12/29 10:01:05;;;;;;;12.43;7.53;;;;;;;11.05;100.00;99832.63;8308622;28;20405;-68
2021/12/29 10:05:05;;;;;;;10.75;6.85;;;;;;;11.12;100.00;99841.78;8325832;28;20576;-67
2021/12/29 10:09:12;;;;;;;11.43;7.80;;;;;;;11.15;100.00;99829.78;8334873;28;20412;-68
2021/12/29 10:13:12;;;;;;;14.27;7.30;;;;;;;11.26;100.00;99822.22;8323935;28;20435;-66
2021/12/29 10:17:13;;;;;;;14.32;8.05;;;;;;;11.37;100.00;99812.97;8342403;28;20041;-66
2021/12/29 10:21:17;;;;;;;16.05;7.28;;;;;;;11.44;100.00;99804.03;8334605;28;20135;-66
2021/12/29 10:25:19;;;;;;;13.00;6.97;;;;;;;11.95;99.66;99796.78;8339317;28;20048;-66
2021/12/29 10:29:21;;;;;;;12.90;5.50;;;;;;;14.24;88.75;99798.38;8331216;28;20467;-66
2021/12/29 10:33:21;;;;;;;6.60;4.22;;;;;;;16.62;77.54;99783.84;8324975;28;20065;-66
2021/12/29 10:37:23;;;;;;;8.70;4.47;;;;;;;18.05;70.93;99770.16;8332222;28;20044;-66
2021/12/29 10:41:55;;;;;;;8.27;3.92;;;;;;;18.51;67.38;99776.59;8325735;28;20046;-65
2021/12/29 10:45:57;;;;;;;5.50;3.40;;;;;;;19.12;64.87;99767.06;8324106;28;20080;-66
2021/12/29 10:54:24;;;;;;;6.75;2.92;;;;;;;18.56;66.51;99749.44;8380767;27;20396;-65
2021/12/29 10:58:27;;;;;;;5.97;3.00;;;;;;;17.97;66.86;99756.69;8320720;28;20042;-65
2021/12/29 11:02:31;;;;;;;3.67;2.13;;;;;;;17.10;69.00;99771.16;8301699;28;20056;-65
2021/12/29 11:06:31;;;;;;;6.47;2.87;;;;;;;16.30;72.34;99762.53;8302853;28;20080;-65
2021/12/29 11:10:31;;;;;;;5.25;3.33;;;;;;;16.05;73.43;99749.47;8306114;28;20080;-65
2021/12/29 11:14:33;;;;;;;5.97;2.25;;;;;;;15.53;74.61;99745.13;8307933;28;20777;-65
2021/12/29 11:18:51;;;;;;;2.75;1.60;;;;;;;15.55;73.91;99764.84;8305254;28;20208;-65
2021/12/29 11:23:04;;;;;;;8.60;2.10;;;;;;;15.19;75.65;99774.81;8304291;28;20435;-65
2021/12/29 11:27:20;;;;;;;5.32;2.30;;;;;;;14.31;77.84;99778.44;8305744;28;20045;-65
2021/12/29 11:31:20;;;;;;;4.28;1.42;;;;;;;13.64;78.02;99757.47;8305503;28;20557;-65
2021/12/29 11:35:24;;;;;;;3.70;1.15;;;;;;;13.04;80.37;99761.81;8306150;28;20034;-65
2021/12/29 11:39:25;;;;;;;4.47;1.25;;;;;;;12.80;83.12;99767.25;8304746;28;20485;-65
2021/12/29 11:43:26;;;;;;;4.55;1.42;;;;;;;12.66;85.55;99782.38;8302841;28;20052;-65
2021/12/29 11:47:27;;;;;;;5.63;1.00;;;;;;;12.61;84.53;99778.47;8305619;28;20135;-65
2021/12/29 11:51:36;;;;;;;2.80;1.27;;;;;;;12.50;84.04;99770.72;8310347;28;20052;-65
2021/12/29 11:55:44;;;;;;;3.83;1.10;;;;;;;12.35;84.97;99754.28;8300056;28;20053;-65
2021/12/29 11:59:45;;;;;;;2.28;1.08;;;;;;;12.26;85.45;99758.00;8304146;28;20445;-65
2021/12/29 12:04:06;;;;;;;2.35;1.27;;;;;;;12.25;86.73;99741.91;8292537;28;20042;-65
2021/12/29 12:08:11;;;;;;;2.88;1.27;;;;;;;12.26;86.76;99752.59;8278599;28;20342;-66
2021/12/29 12:12:13;;;;;;;1.77;0.95;;;;;;;12.26;86.61;99768.03;8281142;28;20057;-66
2021/12/29 12:16:15;;;;;;;4.20;1.30;;;;;;;12.26;87.02;99749.88;8282458;28;20037;-66
2021/12/29 12:20:15;;;;;;;4.45;1.17;;;;;;;12.21;87.76;99732.44;8282851;28;20100;-67
2021/12/29 12:24:20;;;;;;;4.30;1.45;;;;;;;12.08;88.61;99738.38;8293166;28;20030;-67
2021/12/29 12:28:21;;;;;;;4.18;1.55;;;;;;;12.06;89.94;99739.56;8280603;28;20274;-67
2021/12/29 12:32:22;;;;;;;7.63;2.15;;;;;;;11.99;90.30;99738.53;8282447;28;20042;-67
2021/12/29 12:36:31;;;;;;;10.20;2.78;;;;;;;11.88;91.52;99743.28;8282170;28;20045;-67
2021/12/29 12:40:32;;;;;;;4.90;2.15;;;;;;;11.89;92.24;99744.09;8271133;28;20105;-67
2021/12/29 12:44:36;;;;;;;5.40;2.50;;;;;;;11.89;92.91;99749.53;8271068;28;20034;-65
2021/12/29 12:48:36;;;;;;;7.72;2.47;;;;;;;11.97;94.06;99762.22;8261036;28;20472;-65
2021/12/29 12:52:41;;;;;;;6.82;1.77;;;;;;;11.92;95.13;99742.94;8271951;28;20042;-65
2021/12/29 12:56:46;;;;;;;5.95;1.70;;;;;;;11.89;96.49;99734.13;8278543;28;20406;-65
2021/12/29 13:00:51;;;;;;;3.65;1.48;;;;;;;11.83;96.86;99742.94;8281032;28;20037;-65
2021/12/29 13:05:15;;;;;;;4.05;1.60;;;;;;;11.82;96.06;99737.69;8282434;28;20045;-65
2021/12/29 13:09:19;;;;;;;6.32;2.22;;;;;;;11.67;96.83;99721.25;8280774;28;20038;-65
2021/12/29 13:13:24;;;;;;;8.20;5.47;;;;;;;11.59;98.97;99723.91;8284147;28;20045;-61
2021/12/29 13:17:25;;;;;;;9.93;4.93;;;;;;;11.51;98.42;99726.59;8279792;28;20281;-62
2021/12/29 13:21:29;;;;;;;21.13;10.38;;;;;;;11.51;98.34;99707.66;8279760;28;20517;-62
2021/12/29 13:25:31;;;;;;;11.68;7.05;;;;;;;11.48;98.94;99718.81;8281430;28;20401;-64
2021/12/29 13:29:31;;;;;;;5.97;3.05;;;;;;;11.47;98.53;99703.56;8281778;28;20653;-65
2021/12/29 13:33:35;;;;;;;8.05;2.00;;;;;;;11.47;98.67;99703.56;8281044;28;20488;-65
2021/12/29 13:37:37;;;;;;;2.05;1.60;;;;;;;11.47;98.29;99706.28;8281339;28;20453;-65
2021/12/29 13:41:38;;;;;;;4.22;2.25;;;;;;;11.52;97.21;99692.25;8281236;28;20040;-65
2021/12/29 13:45:39;;;;;;;4.75;2.40;;;;;;;11.56;97.65;99710.69;8284435;28;20065;-65
2021/12/29 13:49:40;;;;;;;4.20;2.95;;;;;;;11.55;98.31;99717.13;8278895;28;20042;-65
2021/12/29 13:53:48;;;;;;;15.38;5.53;;;;;;;11.61;98.53;99707.50;8286649;28;20053;-65
2021/12/29 13:57:52;;;;;;;3.28;1.90;;;;;;;11.61;99.70;99694.81;8279535;28;20057;-65
2021/12/29 14:01:56;;;;;;;4.10;1.50;;;;;;;11.55;100.00;99703.59;8280788;28;20123;-65
2021/12/29 14:06:03;;;;;;;5.60;1.58;;;;;;;11.55;100.00;99676.53;8281157;28;20061;-65
2021/12/29 14:10:04;;;;;;;3.92;1.23;;;;;;;11.51;100.00;99672.47;8281475;28;20046;-65
2021/12/29 14:14:09;;;;;;;3.53;1.40;;;;;;;11.45;100.00;99666.88;8268860;28;20517;-65
2021/12/29 14:18:21;;;;;;;1.58;0.95;;;;;;;11.35;100.00;99645.38;8263928;28;20042;-65
2021/12/29 14:22:24;;;;;;;1.50;1.30;;;;;;;11.25;100.00;99650.09;8265680;28;20568;-65
2021/12/29 14:26:27;;;;;;;4.25;1.88;;;;;;;11.26;100.00;99654.47;8279247;28;20042;-65
2021/12/29 14:30:28;;;;;;;3.15;1.05;;;;;;;11.30;100.00;99639.63;8275733;28;20052;-65
2021/12/29 14:34:52;;;;;;;4.00;1.30;;;;;;;11.31;100.00;99652.13;8273201;28;20046;-65
2021/12/29 14:39:01;;;;;;;3.42;1.23;;;;;;;11.28;100.00;99647.03;8278489;28;20719;-65
2021/12/29 14:43:13;;;;;;;2.90;1.60;;;;;;;11.25;100.00;99647.38;8260357;28;20456;-65
2021/12/29 14:47:14;;;;;;;3.70;1.50;;;;;;;11.15;100.00;99646.69;8269356;28;20045;-65
2021/12/29 14:51:14;;;;;;;6.20;1.83;;;;;;;11.17;100.00;99638.41;8281284;28;20049;-65
2021/12/29 14:55:20;;;;;;;8.68;3.20;;;;;;;11.10;100.00;99635.50;8278408;28;20037;-64
2021/12/29 14:59:20;;;;;;;5.38;2.78;;;;;;;11.05;100.00;99639.72;8276135;28;20062;-64
2021/12/29 15:03:21;;;;;;;4.10;2.22;;;;;;;11.01;100.00;99636.50;8276729;28;20034;-64
2021/12/29 15:07:23;;;;;;;7.03;2.25;;;;;;;11.04;100.00;99652.41;8278013;28;20291;-64
2021/12/29 15:11:24;;;;;;;3.13;1.77;;;;;;;11.05;100.00;99667.63;8277458;28;20045;-64
2021/12/29 15:15:29;;;;;;;4.40;1.50;;;;;;;11.08;100.00;99675.41;8259375;28;20064;-64
2021/12/29 15:19:29;;;;;;;;;;;;;;;11.03;100.00;99675.06;8263104;28;20041;-63
2021/12/29 15:23:34;;;;;;;4.43;2.20;;;;;;;10.96;100.00;99665.91;8274251;28;19925;-63
2021/12/29 15:27:34;;;;;;;5.13;2.28;;;;;;;10.95;100.00;99656.09;8270407;28;20508;-63
2021/12/29 15:31:37;;;;;;;4.03;2.45;;;;;;;10.87;100.00;99653.38;8276925;28;20108;-64
2021/12/29 15:35:38;;;;;;;4.57;3.00;;;;;;;10.82;100.00;99627.81;8260278;28;20054;-64
2021/12/29 15:39:39;;;;;;;8.98;4.63;;;;;;;10.82;100.00;99606.19;8260242;28;20074;-64
2021/12/29 15:43:41;;;;;;;5.28;3.40;;;;;;;10.86;100.00;99613.81;8267444;28;20078;-64
2021/12/29 15:47:42;;;;;;;7.90;3.53;;;;;;;10.88;100.00;99630.72;8278187;28;20111;-64
2021/12/29 15:51:43;;;;;;;8.25;3.17;;;;;;;10.77;100.00;99614.78;8285095;28;20133;-64
2021/12/29 15:55:44;;;;;;;4.88;3.38;;;;;;;10.78;100.00;99629.16;8270446;28;20054;-64
2021/12/29 15:59:45;;;;;;;6.15;3.75;;;;;;;10.82;100.00;99617.84;8279580;28;20158;-64
2021/12/29 16:03:47;;;;;;;5.78;2.90;;;;;;;10.85;100.00;99628.34;8278918;28;20058;-64
2021/12/29 16:07:47;;;;;;;6.88;3.38;;;;;;;10.87;100.00;99631.75;8272384;28;20087;-63
2021/12/29 16:11:50;;;;;;;9.52;5.38;;;;;;;10.85;100.00;99617.53;8267929;28;20046;-63
2021/12/29 16:15:50;;;;;;;7.10;4.20;;;;;;;10.84;100.00;99615.84;8309969;28;20030;-64
2021/12/29 16:19:51;;;;;;;3.63;1.85;;;;;;;10.92;100.00;99623.13;8274342;28;20099;-63
2021/12/29 16:23:51;;;;;;;4.18;2.85;;;;;;;10.94;100.00;99627.34;8282297;28;20033;-64
2021/12/29 16:27:52;;;;;;;4.43;2.33;;;;;;;10.88;100.00;99611.78;8280952;28;20037;-64
2021/12/29 16:31:53;;;;;;;2.75;1.60;;;;;;;10.90;100.00;99623.31;8279666;28;20596;-64
2021/12/29 16:35:53;;;;;;;3.80;2.50;;;;;;;10.97;100.00;99610.81;8269718;28;20049;-64
2021/12/29 16:39:54;;;;;;;2.47;1.60;;;;;;;10.97;100.00;99610.81;8282640;28;20044;-64
2021/12/29 16:43:55;;;;;;;3.13;1.80;;;;;;;11.01;100.00;99614.84;8283065;28;20041;-64
2021/12/29 16:47:57;;;;;;;5.18;2.53;;;;;;;11.01;100.00;99606.75;8284665;28;20033;-64
2021/12/29 16:51:57;;;;;;;2.55;1.48;;;;;;;11.02;100.00;99589.53;8278514;28;20050;-64
2021/12/29 16:55:58;;;;;;;1.98;1.40;;;;;;;11.07;100.00;99595.25;8276663;28;20054;-64
2021/12/29 16:59:58;;;;;;;3.60;1.15;;;;;;;11.11;100.00;99591.25;8267735;28;20089;-64
2021/12/29 17:03:59;;;;;;;3.65;1.30;;;;;;;11.12;100.00;99598.34;8273611;28;20049;-64
2021/12/29 17:07:59;;;;;;;3.25;1.40;;;;;;;11.11;100.00;99602.06;8278247;28;20381;-64
2021/12/29 17:12:00;;;;;;;1.52;0.90;;;;;;;11.20;100.00;99595.63;8279205;28;20038;-64
2021/12/29 17:16:00;;;;;;;1.75;0.90;;;;;;;11.28;100.00;99609.16;8274224;28;20077;-64
2021/12/29 17:20:03;;;;;;;3.83;1.50;;;;;;;11.36;100.00;99611.91;8277714;28;20044;-64
2021/12/29 17:24:04;;;;;;;4.88;2.40;;;;;;;11.38;100.00;99599.03;8281726;28;20038;-64
2021/12/29 17:28:04;;;;;;;11.07;6.03;;;;;;;11.77;100.00;99602.78;8280305;28;20038;-64
2021/12/29 17:32:06;;;;;;;3.00;1.45;;;;;;;12.27;100.00;99590.84;8280989;28;20483;-64
2021/12/29 17:36:06;;;;;;;2.20;1.67;;;;;;;12.56;100.00;99591.91;8284407;28;20042;-64
2021/12/29 17:40:10;;;;;;;2.90;0.95;;;;;;;12.82;100.00;99603.34;8282177;28;20034;-64
2021/12/29 17:44:11;;;;;;;2.05;1.48;;;;;;;13.07;100.00;99606.78;8282708;28;20037;-64
2021/12/29 17:48:13;;;;;;;3.28;1.30;;;;;;;13.20;100.00;99604.31;8281338;28;20072;-64
2021/12/29 17:52:14;;;;;;;4.05;1.60;;;;;;;13.31;100.00;99609.34;8282150;28;20125;-64
2021/12/29 17:56:16;;;;;;;2.38;1.35;;;;;;;13.40;100.00;99598.25;8282230;28;20041;-64
2021/12/29 18:00:20;;;;;;;2.17;1.67;;;;;;;13.48;100.00;99608.22;8278888;28;20121;-64
2021/12/29 18:04:21;;;;;;;1.33;0.98;;;;;;;13.59;100.00;99616.78;8281362;28;20538;-64
2021/12/29 18:08:22;;;;;;;1.30;1.00;;;;;;;13.66;100.00;99615.00;8282311;28;20414;-64
2021/12/29 18:12:22;;;;;;;1.23;0.80;;;;;;;13.62;100.00;99624.56;8281153;28;20077;-64
2021/12/29 18:16:23;;;;;;;1.10;0.80;;;;;;;13.68;100.00;99612.13;8282033;28;20037;-64
2021/12/29 18:20:24;;;;;;;1.30;0.73;;;;;;;13.78;100.00;99634.44;8281437;28;20385;-64
2021/12/29 18:24:24;;;;;;;2.08;0.70;;;;;;;13.83;100.00;99642.88;8289102;28;20042;-64
2021/12/29 18:28:25;;;;;;;1.30;0.80;;;;;;;13.87;100.00;99652.34;8281479;28;20034;-64
2021/12/29 18:32:27;;;;;;;0.88;0.70;;;;;;;13.94;100.00;99658.78;8262968;28;20486;-64
2021/12/29 18:36:29;;;;;;;3.20;1.52;;;;;;;13.95;100.00;99674.03;8281251;28;20132;-64
2021/12/29 18:40:30;;;;;;;1.30;1.20;;;;;;;13.99;100.00;99686.22;8279009;28;20048;-64
2021/12/29 18:44:30;;;;;;;2.53;1.30;;;;;;;14.06;100.00;99676.31;8281149;28;20069;-65
2021/12/29 18:48:31;;;;;;;2.80;1.40;;;;;;;14.12;100.00;99691.06;8277935;28;20374;-65